createdAt,value
2022-10-04T02:44:32.736Z,85.07
2022-10-04T03:14:39.180Z,86.39
2022-10-04T03:44:44.583Z,86.88
2022-10-04T04:14:51.431Z,85.22
2022-10-04T04:44:57.810Z,85.64
2022-10-04T05:15:01.939Z,86.83
2022-10-04T05:45:15.277Z,87.20
2022-10-04T06:15:42.758Z,86.62
2022-10-04T06:45:58.357Z,86.14
2022-10-04T07:16:06.185Z,83.47
2022-10-04T07:46:16.268Z,82.43
2022-10-04T08:16:34.199Z,77.07
2022-10-04T08:47:22.449Z,74.28
2022-10-04T09:17:33.555Z,71.05
2022-10-04T09:47:45.641Z,53.63
2022-10-04T10:17:54.555Z,41.33
2022-10-04T10:48:01.905Z,32.62
2022-10-04T11:18:29.705Z,32.07
2022-10-04T11:48:43.808Z,29.51
2022-10-04T12:19:15.490Z,29.78
2022-10-04T12:49:26.920Z,31.78
2022-10-04T13:19:35.187Z,34.52
2022-10-04T13:49:52.541Z,33.29
2022-10-04T14:20:24.247Z,33.92
2022-10-04T14:50:31.507Z,33.91
2022-10-04T15:20:49.614Z,35.53
2022-10-04T15:51:01.604Z,38.99
2022-10-04T16:21:15.980Z,58.74
2022-10-04T16:51:50.404Z,64.79
2022-10-04T17:22:06.882Z,70.74
2022-10-04T17:52:39.422Z,74.02
2022-10-04T18:22:49.351Z,75.83
2022-10-04T18:53:01.884Z,76.99
2022-10-04T19:23:12.302Z,77.60
2022-10-04T19:53:19.371Z,79.22
2022-10-04T20:23:49.905Z,80.58
2022-10-04T20:53:54.721Z,81.70
2022-10-04T21:23:58.978Z,83.71
2022-10-04T21:54:03.258Z,82.63
2022-10-04T22:24:11.977Z,83.44
2022-10-04T22:54:17.845Z,84.61
2022-10-04T23:24:23.493Z,86.71
